createdAt,value
2024-01-15T00:00:25.318Z,232.67
2024-01-15T00:00:57.250Z,233.00
2024-01-15T00:01:29.186Z,234.00
2024-01-15T00:02:01.003Z,233.00
2024-01-15T00:02:32.809Z,232.00
2024-01-15T00:03:05.039Z,232.00
2024-01-15T00:03:37.001Z,232.00
2024-01-15T00:04:08.964Z,231.00
2024-01-15T00:04:41.678Z,229.00
2024-01-15T00:05:13.514Z,226.33
2024-01-15T00:05:45.360Z,225.33
2024-01-15T00:06:17.320Z,224.33
2024-01-15T00:06:50.339Z,224.00
2024-01-15T00:07:22.304Z,223.67
2024-01-15T00:07:54.129Z,221.33
2024-01-15T00:08:25.976Z,221.00
2024-01-15T00:08:59.364Z,222.00
2024-01-15T00:09:31.286Z,223.67
2024-01-15T00:10:03.629Z,225.33
2024-01-15T00:10:35.448Z,226.33
2024-01-15T00:11:07.252Z,227.00
2024-01-15T00:11:39.116Z,227.67
2024-01-15T00:12:11.026Z,227.67
2024-01-15T00:12:43.080Z,227.00
2024-01-15T00:13:14.935Z,225.00
2024-01-15T00:13:47.200Z,222.67
2024-01-15T00:14:21.434Z,220.33
2024-01-15T00:14:53.424Z,218.00
2024-01-15T00:15:25.250Z,217.33
2024-01-15T00:15:57.330Z,218.67
2024-01-15T00:16:29.169Z,220.00
2024-01-15T00:17:00.973Z,220.00
2024-01-15T00:17:32.813Z,220.67
2024-01-15T00:18:05.107Z,221.00
2024-01-15T00:18:37.249Z,221.00
2024-01-15T00:19:09.279Z,221.00
2024-01-15T00:19:41.371Z,221.00
2024-01-15T00:20:13.833Z,221.33
2024-01-15T00:20:45.619Z,223.00
2024-01-15T00:21:17.479Z,235.00
2024-01-15T00:21:49.484Z,251.33
2024-01-15T00:22:21.411Z,258.00
2024-01-15T00:22:53.190Z,257.33
2024-01-15T00:23:24.988Z,258.67
2024-01-15T00:23:56.781Z,262.00
2024-01-15T00:24:28.639Z,263.00
2024-01-15T00:25:00.456Z,262.67
2024-01-15T00:25:32.465Z,260.33
2024-01-15T00:26:04.849Z,257.00
2024-01-15T00:26:37.527Z,255.33
2024-01-15T00:27:09.938Z,253.67
2024-01-15T00:27:42.024Z,252.67
2024-01-15T00:28:13.839Z,252.00
2024-01-15T00:28:45.677Z,251.33
2024-01-15T00:29:17.540Z,251.00
2024-01-15T00:29:49.372Z,250.33
2024-01-15T00:30:21.634Z,250.00
2024-01-15T00:30:53.721Z,249.33
2024-01-15T00:31:25.663Z,247.00
2024-01-15T00:31:57.536Z,244.00
2024-01-15T00:32:29.433Z,240.00
2024-01-15T00:33:01.351Z,235.67
2024-01-15T00:33:33.420Z,231.00
2024-01-15T00:34:05.404Z,228.00
2024-01-15T00:34:37.379Z,225.67
2024-01-15T00:35:09.521Z,224.67
2024-01-15T00:35:42.107Z,222.33
2024-01-15T00:36:15.510Z,220.00
2024-01-15T00:36:47.445Z,219.00
2024-01-15T00:37:19.243Z,219.33
2024-01-15T00:37:51.027Z,219.33
2024-01-15T00:38:22.883Z,218.00
2024-01-15T00:38:55.124Z,216.33
2024-01-15T00:39:27.601Z,215.00
2024-01-15T00:39:59.438Z,214.67
2024-01-15T00:40:31.201Z,214.00
2024-01-15T00:41:03.992Z,213.33
2024-01-15T00:41:35.765Z,211.67
2024-01-15T00:42:07.692Z,209.33
2024-01-15T00:42:39.650Z,208.00
2024-01-15T00:43:11.541Z,207.00
2024-01-15T00:43:43.338Z,206.00
2024-01-15T00:44:15.188Z,203.67
2024-01-15T00:44:47.007Z,202.00
2024-01-15T00:45:19.063Z,201.33
2024-01-15T00:45:51.018Z,204.67
2024-01-15T00:46:23.121Z,215.33
2024-01-15T00:46:54.940Z,246.00
2024-01-15T00:47:27.244Z,249.00
2024-01-15T00:48:00.742Z,238.67
2024-01-15T00:48:33.191Z,235.67
2024-01-15T00:49:05.372Z,230.00
2024-01-15T00:49:37.292Z,218.00
2024-01-15T00:50:09.634Z,206.33
2024-01-15T00:50:41.402Z,199.67
2024-01-15T00:51:13.278Z,196.00
2024-01-15T00:51:45.236Z,192.67
2024-01-15T00:52:17.159Z,191.67
2024-01-15T00:52:48.968Z,190.00
2024-01-15T00:53:23.164Z,188.67
2024-01-15T00:53:55.015Z,187.33
2024-01-15T00:54:27.615Z,187.33
2024-01-15T00:54:59.502Z,187.00
2024-01-15T00:55:31.324Z,185.67
2024-01-15T00:56:04.231Z,185.33
2024-01-15T00:56:36.156Z,185.67
2024-01-15T00:57:08.039Z,186.00
2024-01-15T00:57:41.467Z,185.33
2024-01-15T00:58:13.327Z,183.67
2024-01-15T00:58:45.125Z,182.67
2024-01-15T00:59:17.006Z,181.00
2024-01-15T00:59:49.357Z,181.00
2024-01-15T01:00:21.378Z,180.33
2024-01-15T01:00:53.379Z,179.67
2024-01-15T01:01:25.325Z,179.00
2024-01-15T01:01:57.338Z,178.33
2024-01-15T01:02:29.180Z,178.00
2024-01-15T01:03:01.099Z,179.00
2024-01-15T01:03:33.057Z,178.33
2024-01-15T01:04:05.238Z,179.00
2024-01-15T01:04:37.175Z,179.33
2024-01-15T01:05:09.044Z,180.00
2024-01-15T01:05:41.061Z,180.00
2024-01-15T01:06:12.933Z,180.33
2024-01-15T01:06:44.843Z,181.00
2024-01-15T01:07:16.773Z,181.00
2024-01-15T01:07:48.602Z,180.33
2024-01-15T01:08:20.379Z,180.00
2024-01-15T01:08:52.198Z,179.00
2024-01-15T01:09:24.088Z,179.00
2024-01-15T01:09:56.589Z,178.67
2024-01-15T01:10:28.938Z,178.00
2024-01-15T01:11:00.832Z,176.33
2024-01-15T01:11:32.606Z,175.67
2024-01-15T01:12:04.632Z,174.67
2024-01-15T01:12:36.483Z,174.00
2024-01-15T01:13:08.379Z,174.00
2024-01-15T01:13:40.338Z,174.67
2024-01-15T01:14:12.157Z,175.00
2024-01-15T01:14:43.982Z,175.67
2024-01-15T01:15:15.844Z,176.00
2024-01-15T01:15:47.761Z,176.00
2024-01-15T01:16:19.569Z,176.00
2024-01-15T01:16:51.345Z,177.00
2024-01-15T01:17:23.924Z,177.00
2024-01-15T01:17:56.076Z,177.00
2024-01-15T01:18:28.204Z,177.00
2024-01-15T01:19:00.217Z,177.33
2024-01-15T01:19:32.663Z,178.00
2024-01-15T01:20:07.337Z,178.00
2024-01-15T01:20:39.451Z,178.00
2024-01-15T01:21:11.448Z,178.00
2024-01-15T01:21:43.310Z,178.00
2024-01-15T01:22:15.149Z,178.00
2024-01-15T01:22:47.008Z,178.67
2024-01-15T01:23:19.080Z,179.00
2024-01-15T01:23:50.876Z,180.33
2024-01-15T01:24:22.755Z,183.33
2024-01-15T01:24:54.617Z,186.00
2024-01-15T01:25:26.433Z,187.67
2024-01-15T01:25:58.321Z,188.67
2024-01-15T01:26:30.122Z,189.00
2024-01-15T01:27:01.981Z,189.33
2024-01-15T01:27:33.970Z,190.00
2024-01-15T01:28:05.906Z,190.00
2024-01-15T01:28:37.772Z,190.00
2024-01-15T01:29:10.136Z,189.67
2024-01-15T01:29:41.965Z,189.00
2024-01-15T01:30:13.989Z,188.33
2024-01-15T01:30:46.033Z,186.00
2024-01-15T01:31:18.009Z,182.33
2024-01-15T01:31:50.230Z,178.00
2024-01-15T01:32:22.023Z,174.00
2024-01-15T01:32:53.839Z,169.00
2024-01-15T01:33:25.775Z,166.67
2024-01-15T01:33:57.721Z,165.00
2024-01-15T01:34:32.892Z,162.67
2024-01-15T01:35:06.452Z,161.00
2024-01-15T01:35:38.598Z,160.67
2024-01-15T01:36:10.952Z,162.00
2024-01-15T01:36:44.087Z,163.00
2024-01-15T01:37:15.951Z,163.67
2024-01-15T01:37:47.778Z,164.00
2024-01-15T01:38:19.633Z,164.00
2024-01-15T01:38:51.534Z,164.00
2024-01-15T01:39:23.877Z,163.33
2024-01-15T01:39:55.772Z,163.00
2024-01-15T01:40:27.725Z,163.67
2024-01-15T01:40:59.557Z,164.00
2024-01-15T01:41:31.353Z,164.33
2024-01-15T01:42:03.171Z,165.00
2024-01-15T01:42:35.040Z,165.00
2024-01-15T01:43:06.955Z,165.00
2024-01-15T01:43:38.739Z,165.00
2024-01-15T01:44:10.500Z,165.33
2024-01-15T01:44:42.535Z,166.00
2024-01-15T01:45:14.380Z,166.33
2024-01-15T01:45:46.399Z,167.00
2024-01-15T01:46:18.784Z,167.00
2024-01-15T01:46:50.807Z,167.00
2024-01-15T01:47:22.803Z,167.00
2024-01-15T01:47:54.858Z,166.00
2024-01-15T01:48:27.573Z,165.33
2024-01-15T01:49:02.728Z,163.67
2024-01-15T01:49:37.068Z,163.00
2024-01-15T01:50:09.527Z,163.00
2024-01-15T01:50:41.477Z,162.00
2024-01-15T01:51:13.398Z,162.00
2024-01-15T01:51:46.116Z,162.00
2024-01-15T01:52:17.917Z,162.00
2024-01-15T01:52:50.368Z,161.33
2024-01-15T01:53:23.259Z,161.00
2024-01-15T01:53:55.115Z,161.00
2024-01-15T01:54:32.456Z,161.00
2024-01-15T01:55:07.202Z,161.00
2024-01-15T01:55:40.263Z,161.00
2024-01-15T01:56:12.985Z,161.00
2024-01-15T01:56:44.993Z,161.00
2024-01-15T01:57:19.085Z,161.67
2024-01-15T01:57:52.259Z,162.00
2024-01-15T01:58:24.303Z,161.33
2024-01-15T01:58:56.363Z,161.00
2024-01-15T01:59:28.816Z,161.00
2024-01-15T02:00:01.337Z,161.00
2024-01-15T02:00:36.301Z,161.00
2024-01-15T02:01:08.769Z,161.00
2024-01-15T02:01:42.136Z,160.33
2024-01-15T02:02:14.814Z,160.00
2024-01-15T02:02:46.694Z,159.00
2024-01-15T02:03:18.614Z,158.00
2024-01-15T02:03:50.635Z,158.00
2024-01-15T02:04:25.657Z,158.00
2024-01-15T02:04:57.690Z,158.00
2024-01-15T02:05:31.331Z,158.33
2024-01-15T02:06:03.141Z,159.00
2024-01-15T02:06:35.345Z,159.33
2024-01-15T02:07:07.483Z,160.00
2024-01-15T02:07:39.638Z,160.33
2024-01-15T02:08:11.475Z,161.00
2024-01-15T02:08:45.055Z,161.33
2024-01-15T02:09:16.917Z,162.00
2024-01-15T02:09:49.046Z,162.00
2024-01-15T02:10:21.049Z,163.00
2024-01-15T02:10:52.822Z,163.00
2024-01-15T02:11:24.931Z,163.00
2024-01-15T02:11:57.198Z,163.00
2024-01-15T02:12:29.064Z,163.00
2024-01-15T02:13:01.072Z,163.00
2024-01-15T02:13:32.886Z,162.67
2024-01-15T02:14:04.760Z,162.00
2024-01-15T02:14:36.533Z,162.00
2024-01-15T02:15:08.768Z,161.00
2024-01-15T02:15:41.355Z,161.00
2024-01-15T02:16:13.139Z,161.00
2024-01-15T02:16:44.966Z,161.00
2024-01-15T02:17:16.845Z,161.00
2024-01-15T02:18:02.986Z,161.00
2024-01-15T02:18:45.579Z,161.00
2024-01-15T02:19:18.506Z,161.00
2024-01-15T02:19:51.591Z,162.00
2024-01-15T02:20:23.656Z,166.00
2024-01-15T02:20:55.897Z,173.00
2024-01-15T02:21:29.845Z,181.33
2024-01-15T02:22:01.719Z,187.00
2024-01-15T02:22:33.581Z,188.00
2024-01-15T02:23:11.991Z,189.00
2024-01-15T02:23:43.848Z,193.00
2024-01-15T02:24:15.749Z,194.33
2024-01-15T02:24:47.652Z,193.00
2024-01-15T02:25:20.544Z,190.67
2024-01-15T02:25:52.607Z,188.33
2024-01-15T02:26:24.621Z,186.67
2024-01-15T02:26:56.442Z,185.67
2024-01-15T02:27:28.294Z,185.00
2024-01-15T02:28:00.178Z,184.00
2024-01-15T02:28:33.602Z,183.33
2024-01-15T02:29:08.051Z,182.67
2024-01-15T02:29:40.463Z,181.33
2024-01-15T02:30:15.206Z,179.00
2024-01-15T02:30:47.237Z,176.67
2024-01-15T02:31:19.384Z,175.00
2024-01-15T02:31:51.308Z,171.67
2024-01-15T02:32:23.126Z,167.67
2024-01-15T02:32:55.011Z,165.33
2024-01-15T02:33:26.970Z,163.67
2024-01-15T02:33:59.168Z,161.33
2024-01-15T02:34:36.147Z,159.33
2024-01-15T02:35:08.228Z,158.00
2024-01-15T02:35:40.328Z,156.33
2024-01-15T02:36:12.198Z,155.33
2024-01-15T02:36:44.184Z,153.67
2024-01-15T02:37:16.047Z,153.00
2024-01-15T02:37:47.888Z,153.00
2024-01-15T02:38:20.251Z,153.33
2024-01-15T02:38:52.056Z,154.00
2024-01-15T02:39:23.955Z,154.67
2024-01-15T02:39:55.981Z,155.00
2024-01-15T02:40:27.744Z,156.00
2024-01-15T02:41:00.022Z,156.00
2024-01-15T02:41:31.835Z,156.67
2024-01-15T02:42:03.705Z,157.00
2024-01-15T02:42:35.963Z,157.33
2024-01-15T02:43:07.791Z,158.00
2024-01-15T02:43:39.583Z,158.00
2024-01-15T02:44:11.441Z,158.00
2024-01-15T02:44:43.304Z,158.00
2024-01-15T02:45:15.156Z,158.67
2024-01-15T02:45:48.076Z,158.00
2024-01-15T02:46:20.048Z,158.00
2024-01-15T02:46:52.288Z,158.00
2024-01-15T02:47:24.058Z,158.00
2024-01-15T02:47:55.968Z,158.00
2024-01-15T02:48:27.976Z,157.67
2024-01-15T02:49:00.050Z,157.00
2024-01-15T02:49:33.629Z,156.00
2024-01-15T02:50:06.330Z,154.67
2024-01-15T02:50:38.154Z,153.33
2024-01-15T02:51:10.131Z,152.00
2024-01-15T02:51:42.086Z,150.33
2024-01-15T02:52:13.922Z,148.00
2024-01-15T02:52:45.689Z,145.00
2024-01-15T02:53:17.526Z,141.33
2024-01-15T02:53:51.454Z,136.33
2024-01-15T02:54:23.390Z,132.67
2024-01-15T02:54:55.255Z,129.00
2024-01-15T02:55:27.091Z,125.67
2024-01-15T02:55:58.891Z,124.00
2024-01-15T02:56:30.660Z,122.33
2024-01-15T02:57:02.529Z,120.00
2024-01-15T02:57:34.687Z,118.33
2024-01-15T02:58:06.543Z,118.00
2024-01-15T02:58:38.326Z,116.67
2024-01-15T02:59:10.118Z,113.33
2024-01-15T02:59:41.962Z,113.67
2024-01-15T03:00:14.101Z,113.67
2024-01-15T03:00:47.438Z,114.67
2024-01-15T03:01:23.193Z,115.33
2024-01-15T03:01:55.140Z,114.67
2024-01-15T03:02:27.060Z,114.67
2024-01-15T03:02:58.988Z,114.33
2024-01-15T03:03:30.926Z,114.00
2024-01-15T03:04:02.961Z,113.67
2024-01-15T03:04:34.914Z,113.00
2024-01-15T03:05:08.784Z,113.00
2024-01-15T03:05:40.708Z,112.00
2024-01-15T03:06:12.701Z,112.00
2024-01-15T03:06:44.638Z,110.33
2024-01-15T03:07:16.973Z,108.33
2024-01-15T03:07:49.245Z,107.67
2024-01-15T03:08:21.076Z,108.00
2024-01-15T03:08:52.923Z,108.00
2024-01-15T03:09:24.938Z,108.00
2024-01-15T03:09:56.826Z,109.00
2024-01-15T03:10:28.674Z,109.00
2024-01-15T03:11:00.542Z,109.00
2024-01-15T03:11:39.116Z,108.67
2024-01-15T03:12:12.189Z,108.00
2024-01-15T03:12:44.265Z,107.00
2024-01-15T03:13:16.233Z,107.00
2024-01-15T03:13:48.058Z,106.00
2024-01-15T03:14:19.935Z,107.00
2024-01-15T03:14:51.787Z,107.00
2024-01-15T03:15:23.618Z,107.00
2024-01-15T03:15:55.986Z,107.67
2024-01-15T03:16:27.872Z,108.00
2024-01-15T03:16:59.816Z,108.00
2024-01-15T03:17:31.694Z,108.33
2024-01-15T03:18:03.604Z,109.33
2024-01-15T03:18:35.732Z,114.33
2024-01-15T03:19:07.729Z,127.00
2024-01-15T03:19:39.721Z,133.33
2024-01-15T03:20:12.189Z,134.00
2024-01-15T03:20:43.983Z,133.00
2024-01-15T03:21:15.813Z,132.00
2024-01-15T03:21:47.717Z,131.33
2024-01-15T03:22:19.574Z,131.00
2024-01-15T03:22:51.328Z,131.00
2024-01-15T03:23:23.082Z,131.00
2024-01-15T03:23:54.976Z,130.00
2024-01-15T03:24:26.774Z,130.00
2024-01-15T03:24:59.315Z,129.67
2024-01-15T03:25:31.135Z,129.00
2024-01-15T03:26:02.982Z,129.00
2024-01-15T03:26:34.811Z,128.00
2024-01-15T03:27:06.905Z,128.00
2024-01-15T03:27:38.795Z,128.00
2024-01-15T03:28:10.666Z,128.00
2024-01-15T03:28:42.437Z,127.33
2024-01-15T03:29:14.230Z,127.00
2024-01-15T03:29:45.992Z,126.00
2024-01-15T03:30:17.943Z,124.67
2024-01-15T03:30:49.888Z,122.00
2024-01-15T03:31:21.820Z,120.67
2024-01-15T03:31:53.854Z,119.67
2024-01-15T03:32:25.714Z,118.67
2024-01-15T03:32:57.571Z,116.33
2024-01-15T03:33:29.572Z,115.33
2024-01-15T03:34:01.645Z,114.67
2024-01-15T03:34:33.643Z,114.00
2024-01-15T03:35:05.880Z,113.00
2024-01-15T03:35:37.794Z,111.67
2024-01-15T03:36:10.139Z,110.33
2024-01-15T03:36:42.054Z,108.67
2024-01-15T03:37:13.901Z,106.00
2024-01-15T03:37:45.802Z,103.67
2024-01-15T03:38:17.624Z,102.00
2024-01-15T03:38:49.385Z,101.33
2024-01-15T03:39:21.256Z,101.00
2024-01-15T03:39:53.214Z,100.67
2024-01-15T03:40:25.299Z,101.00
2024-01-15T03:40:57.137Z,101.00
2024-01-15T03:41:29.215Z,101.67
2024-01-15T03:42:00.989Z,102.00
2024-01-15T03:42:32.904Z,102.00
2024-01-15T03:43:05.020Z,102.33
2024-01-15T03:43:36.839Z,103.00
2024-01-15T03:44:08.673Z,104.00
2024-01-15T03:44:40.527Z,106.00
2024-01-15T03:45:12.371Z,109.00
2024-01-15T03:45:44.242Z,112.00
2024-01-15T03:46:16.029Z,114.00
2024-01-15T03:46:47.777Z,115.33
2024-01-15T03:47:19.557Z,116.67
2024-01-15T03:47:51.578Z,117.00
2024-01-15T03:48:23.687Z,117.00
2024-01-15T03:48:55.707Z,117.00
2024-01-15T03:49:27.733Z,118.00
2024-01-15T03:49:59.641Z,119.00
2024-01-15T03:50:31.415Z,119.00
2024-01-15T03:51:03.311Z,119.00
2024-01-15T03:51:35.247Z,120.33
2024-01-15T03:52:07.047Z,125.33
2024-01-15T03:52:38.988Z,132.67
2024-01-15T03:53:10.759Z,142.67
2024-01-15T03:53:42.556Z,156.33
2024-01-15T03:54:15.313Z,166.67
2024-01-15T03:54:48.472Z,167.33
2024-01-15T03:55:20.434Z,166.00
2024-01-15T03:55:52.760Z,164.00
2024-01-15T03:56:24.634Z,162.33
2024-01-15T03:56:56.483Z,162.33
2024-01-15T03:57:28.381Z,161.67
2024-01-15T03:58:00.378Z,163.00
2024-01-15T03:58:32.312Z,163.33
2024-01-15T03:59:04.146Z,160.33
2024-01-15T03:59:36.045Z,156.33
2024-01-15T04:00:08.866Z,154.00
2024-01-15T04:00:40.771Z,153.00
2024-01-15T04:01:13.286Z,152.33
2024-01-15T04:01:54.414Z,151.00
2024-01-15T04:02:26.222Z,149.33
2024-01-15T04:02:57.994Z,147.67
2024-01-15T04:03:29.986Z,147.00
2024-01-15T04:04:01.936Z,145.67
2024-01-15T04:04:33.911Z,144.00
2024-01-15T04:05:06.093Z,142.00
2024-01-15T04:05:37.942Z,140.33
2024-01-15T04:06:09.825Z,138.00
2024-01-15T04:06:41.754Z,134.33
2024-01-15T04:07:13.796Z,132.33
2024-01-15T04:07:45.711Z,131.67
2024-01-15T04:08:17.527Z,130.67
2024-01-15T04:08:49.407Z,129.33
2024-01-15T04:09:21.265Z,128.33
2024-01-15T04:09:53.249Z,127.00
2024-01-15T04:10:25.278Z,127.00
2024-01-15T04:10:57.186Z,130.00
2024-01-15T04:11:29.030Z,158.00
2024-01-15T04:12:00.834Z,211.67
2024-01-15T04:12:32.752Z,230.67
2024-01-15T04:13:04.803Z,218.33
2024-01-15T04:13:37.383Z,197.33
2024-01-15T04:14:10.113Z,184.00
2024-01-15T04:14:41.937Z,175.33
2024-01-15T04:15:13.996Z,172.00
2024-01-15T04:15:45.886Z,169.67
2024-01-15T04:16:17.760Z,168.67
2024-01-15T04:16:49.620Z,168.00
2024-01-15T04:17:22.938Z,166.67
2024-01-15T04:17:54.984Z,165.00
2024-01-15T04:18:26.860Z,160.33
2024-01-15T04:18:59.441Z,152.33
2024-01-15T04:19:31.351Z,142.67
2024-01-15T04:20:03.163Z,137.33
2024-01-15T04:20:34.913Z,134.67
2024-01-15T04:21:07.599Z,132.00
2024-01-15T04:21:39.820Z,130.33
2024-01-15T04:22:11.691Z,127.33
2024-01-15T04:22:45.086Z,123.67
2024-01-15T04:23:16.954Z,122.33
2024-01-15T04:23:48.716Z,121.67
2024-01-15T04:24:20.504Z,120.67
2024-01-15T04:24:52.391Z,120.33
2024-01-15T04:25:24.279Z,119.00
2024-01-15T04:25:56.165Z,118.00
2024-01-15T04:26:28.015Z,116.00
2024-01-15T04:27:00.057Z,112.00
2024-01-15T04:27:31.980Z,111.67
2024-01-15T04:28:03.898Z,112.33
2024-01-15T04:28:35.713Z,111.67
2024-01-15T04:29:07.650Z,110.00
2024-01-15T04:29:41.680Z,111.00
2024-01-15T04:30:14.257Z,111.00
2024-01-15T04:30:46.232Z,109.67
2024-01-15T04:31:28.416Z,107.33
2024-01-15T04:32:00.601Z,106.33
2024-01-15T04:32:32.493Z,106.00
2024-01-15T04:33:04.583Z,106.67
2024-01-15T04:33:36.736Z,108.33
2024-01-15T04:34:08.724Z,109.67
2024-01-15T04:34:40.740Z,110.00
2024-01-15T04:35:13.821Z,110.00
2024-01-15T04:35:45.656Z,110.00
2024-01-15T04:36:17.588Z,109.67
2024-01-15T04:36:49.742Z,109.00
2024-01-15T04:37:21.666Z,109.33
2024-01-15T04:37:53.981Z,112.33
2024-01-15T04:38:25.809Z,125.33
2024-01-15T04:38:57.581Z,131.33
2024-01-15T04:39:30.862Z,130.33
2024-01-15T04:40:05.166Z,129.00
2024-01-15T04:40:37.088Z,128.33
2024-01-15T04:41:14.885Z,127.67
2024-01-15T04:41:46.733Z,125.00
2024-01-15T04:42:18.569Z,123.00
2024-01-15T04:42:50.468Z,120.67
2024-01-15T04:43:22.429Z,119.67
2024-01-15T04:43:54.250Z,118.00
2024-01-15T04:44:26.078Z,115.00
2024-01-15T04:44:57.988Z,112.00
2024-01-15T04:45:30.174Z,109.67
2024-01-15T04:46:02.118Z,108.33
2024-01-15T04:46:33.918Z,108.00
2024-01-15T04:47:05.715Z,108.00
2024-01-15T04:47:38.071Z,109.33
2024-01-15T04:48:10.012Z,110.67
2024-01-15T04:48:41.920Z,111.00
2024-01-15T04:49:14.147Z,111.00
2024-01-15T04:49:46.135Z,111.67
2024-01-15T04:50:18.010Z,111.00
2024-01-15T04:50:49.822Z,110.67
2024-01-15T04:51:21.721Z,110.00
2024-01-15T04:51:53.592Z,110.00
2024-01-15T04:52:25.529Z,109.00
2024-01-15T04:52:57.336Z,108.33
2024-01-15T04:53:29.197Z,108.33
2024-01-15T04:54:01.002Z,109.00
2024-01-15T04:54:32.899Z,109.00
2024-01-15T04:55:04.894Z,110.33
2024-01-15T04:55:36.674Z,112.00
2024-01-15T04:56:08.601Z,117.67
2024-01-15T04:56:40.837Z,132.67
2024-01-15T04:57:12.787Z,146.67
2024-01-15T04:57:45.104Z,164.33
2024-01-15T04:58:17.027Z,199.00
2024-01-15T04:58:48.841Z,214.67
2024-01-15T04:59:20.645Z,205.67
2024-01-15T04:59:52.493Z,189.33
2024-01-15T05:00:24.354Z,174.33
2024-01-15T05:00:56.293Z,165.00
2024-01-15T05:01:32.735Z,161.00
2024-01-15T05:02:04.589Z,157.00
2024-01-15T05:02:36.486Z,155.33
2024-01-15T05:03:08.384Z,152.33
2024-01-15T05:03:40.460Z,147.00
2024-01-15T05:04:12.539Z,142.33
2024-01-15T05:04:44.454Z,138.00
2024-01-15T05:05:16.809Z,135.00
2024-01-15T05:05:48.741Z,130.67
2024-01-15T05:06:20.654Z,125.33
2024-01-15T05:06:52.602Z,121.00
2024-01-15T05:07:24.592Z,119.00
2024-01-15T05:07:56.470Z,117.00
2024-01-15T05:08:28.451Z,114.33
2024-01-15T05:09:00.671Z,113.00
2024-01-15T05:09:33.256Z,113.00
2024-01-15T05:10:05.755Z,114.33
2024-01-15T05:10:37.768Z,115.33
2024-01-15T05:11:09.621Z,116.33
2024-01-15T05:11:41.462Z,116.67
2024-01-15T05:12:13.499Z,114.67
2024-01-15T05:12:45.464Z,114.00
2024-01-15T05:13:17.329Z,114.00
2024-01-15T05:13:49.348Z,113.33
2024-01-15T05:14:21.122Z,111.33
2024-01-15T05:14:52.944Z,110.00
2024-01-15T05:15:24.801Z,110.00
2024-01-15T05:15:56.933Z,110.00
2024-01-15T05:16:28.796Z,111.00
2024-01-15T05:17:00.591Z,111.00
2024-01-15T05:17:32.414Z,112.00
2024-01-15T05:18:04.355Z,111.33
2024-01-15T05:18:38.437Z,110.67
2024-01-15T05:19:10.414Z,109.33
2024-01-15T05:19:42.372Z,108.33
2024-01-15T05:20:14.405Z,109.00
2024-01-15T05:20:46.355Z,109.00
2024-01-15T05:21:18.218Z,109.33
2024-01-15T05:21:50.139Z,110.00
2024-01-15T05:22:22.358Z,110.00
2024-01-15T05:22:54.175Z,110.33
2024-01-15T05:23:26.086Z,111.00
2024-01-15T05:23:57.856Z,111.00
2024-01-15T05:24:29.686Z,111.67
2024-01-15T05:25:01.567Z,112.00
2024-01-15T05:25:33.420Z,112.00
2024-01-15T05:26:05.365Z,111.67
2024-01-15T05:26:37.240Z,110.00
2024-01-15T05:27:09.084Z,107.67
2024-01-15T05:27:40.988Z,106.00
2024-01-15T05:28:13.003Z,105.33
2024-01-15T05:28:44.838Z,105.00
2024-01-15T05:29:16.652Z,105.33
2024-01-15T05:29:48.468Z,106.00
2024-01-15T05:30:20.363Z,106.00
2024-01-15T05:30:52.582Z,105.33
2024-01-15T05:31:24.572Z,105.00
2024-01-15T05:31:58.255Z,105.00
2024-01-15T05:32:31.986Z,104.33
2024-01-15T05:33:04.425Z,104.00
2024-01-15T05:33:36.313Z,103.33
2024-01-15T05:34:08.248Z,103.00
2024-01-15T05:34:40.583Z,103.00
2024-01-15T05:35:12.452Z,103.00
2024-01-15T05:35:44.415Z,103.00
2024-01-15T05:36:16.250Z,103.00
2024-01-15T05:36:49.227Z,102.33
2024-01-15T05:37:21.174Z,102.67
2024-01-15T05:37:52.950Z,103.00
2024-01-15T05:38:24.874Z,103.00
2024-01-15T05:38:56.736Z,103.00
2024-01-15T05:39:28.636Z,103.00
2024-01-15T05:40:00.622Z,103.00
2024-01-15T05:40:32.680Z,103.00
2024-01-15T05:41:04.596Z,103.00
2024-01-15T05:41:36.416Z,103.00
2024-01-15T05:42:08.221Z,103.00
2024-01-15T05:42:41.015Z,103.00
2024-01-15T05:43:12.879Z,102.00
2024-01-15T05:43:44.702Z,102.00
2024-01-15T05:44:16.549Z,102.00
2024-01-15T05:44:48.389Z,102.00
2024-01-15T05:45:20.264Z,102.00
2024-01-15T05:45:52.334Z,102.00
2024-01-15T05:46:24.241Z,102.00
2024-01-15T05:46:56.038Z,102.33
2024-01-15T05:47:27.933Z,103.00
2024-01-15T05:47:59.887Z,103.00
2024-01-15T05:48:31.962Z,103.00
2024-01-15T05:49:03.908Z,103.00
2024-01-15T05:49:35.919Z,103.00
2024-01-15T05:50:08.160Z,102.33
2024-01-15T05:50:40.057Z,101.67
2024-01-15T05:51:11.898Z,100.67
2024-01-15T05:51:43.805Z,99.00
2024-01-15T05:52:15.771Z,97.00
2024-01-15T05:52:47.687Z,94.33
2024-01-15T05:53:19.471Z,93.33
2024-01-15T05:53:52.675Z,92.00
2024-01-15T05:54:24.925Z,91.00
2024-01-15T05:54:56.745Z,91.00
2024-01-15T05:55:28.553Z,91.00
2024-01-15T05:56:00.613Z,91.00
2024-01-15T05:56:32.461Z,91.00
2024-01-15T05:57:04.488Z,91.00
2024-01-15T05:57:36.315Z,91.33
2024-01-15T05:58:08.172Z,92.00
2024-01-15T05:58:39.930Z,92.00
2024-01-15T05:59:15.110Z,92.00
2024-01-15T05:59:47.804Z,92.33
2024-01-15T06:00:19.959Z,93.00
2024-01-15T06:00:52.009Z,93.00
2024-01-15T06:01:23.987Z,94.33
2024-01-15T06:01:56.103Z,95.67
2024-01-15T06:02:27.939Z,97.33
2024-01-15T06:03:00.568Z,98.67
2024-01-15T06:03:32.627Z,100.33
2024-01-15T06:04:04.810Z,101.67
2024-01-15T06:04:36.834Z,103.00
2024-01-15T06:05:08.674Z,103.00
2024-01-15T06:05:40.940Z,103.00
2024-01-15T06:06:13.041Z,103.00
2024-01-15T06:06:44.889Z,103.00
2024-01-15T06:07:20.638Z,103.00
2024-01-15T06:07:55.200Z,102.33
2024-01-15T06:08:40.287Z,102.00
2024-01-15T06:09:18.204Z,102.00
2024-01-15T06:09:50.412Z,102.00
2024-01-15T06:10:22.413Z,102.00
2024-01-15T06:10:54.345Z,102.00
2024-01-15T06:11:31.158Z,101.00
2024-01-15T06:12:02.917Z,101.00
2024-01-15T06:12:35.025Z,101.00
2024-01-15T06:13:06.966Z,101.00
2024-01-15T06:13:38.820Z,102.33
2024-01-15T06:14:10.631Z,170.33
2024-01-15T06:14:43.755Z,193.67
2024-01-15T06:15:15.599Z,147.67
2024-01-15T06:15:47.547Z,128.33
2024-01-15T06:16:21.270Z,125.67
2024-01-15T06:16:53.876Z,121.33
2024-01-15T06:17:25.768Z,113.33
2024-01-15T06:17:57.673Z,108.00
2024-01-15T06:18:29.643Z,104.67
2024-01-15T06:19:01.719Z,101.00
2024-01-15T06:19:33.785Z,100.00
2024-01-15T06:20:06.742Z,99.00
2024-01-15T06:20:39.398Z,100.00
2024-01-15T06:21:13.940Z,100.00
2024-01-15T06:21:45.908Z,100.00
2024-01-15T06:22:17.739Z,100.33
2024-01-15T06:22:49.501Z,100.33
2024-01-15T06:23:21.725Z,100.67
2024-01-15T06:23:53.733Z,101.00
2024-01-15T06:24:25.683Z,101.00
2024-01-15T06:24:57.649Z,101.00
2024-01-15T06:25:29.612Z,101.67
2024-01-15T06:26:01.450Z,102.00
2024-01-15T06:26:33.289Z,102.00
2024-01-15T06:27:05.274Z,102.00
2024-01-15T06:27:37.202Z,102.00
2024-01-15T06:28:09.043Z,102.00
2024-01-15T06:28:40.942Z,102.00
2024-01-15T06:29:12.866Z,102.00
2024-01-15T06:29:51.109Z,103.00
2024-01-15T06:30:23.516Z,103.00
2024-01-15T06:30:55.697Z,103.00
2024-01-15T06:31:27.777Z,103.67
2024-01-15T06:31:59.777Z,104.00
2024-01-15T06:32:31.730Z,105.00
2024-01-15T06:33:03.761Z,112.67
2024-01-15T06:33:35.695Z,123.00
2024-01-15T06:34:07.746Z,130.00
2024-01-15T06:34:39.704Z,133.67
2024-01-15T06:35:12.823Z,135.67
2024-01-15T06:35:44.784Z,137.67
2024-01-15T06:36:17.525Z,136.67
2024-01-15T06:36:49.474Z,137.00
2024-01-15T06:37:21.538Z,139.33
2024-01-15T06:37:53.380Z,140.67
2024-01-15T06:38:26.208Z,147.00
2024-01-15T06:38:58.042Z,217.67
2024-01-15T06:39:29.862Z,228.00
2024-01-15T06:40:01.829Z,181.67
2024-01-15T06:40:33.696Z,157.00
2024-01-15T06:41:05.526Z,151.67
2024-01-15T06:41:44.908Z,150.00
2024-01-15T06:42:16.945Z,145.33
2024-01-15T06:42:48.832Z,141.00
2024-01-15T06:43:20.657Z,135.33